Time;durP1;ratioP1;P1;durP2;ratioP2;P2;SDS_P1;SDS_P2;PMS_P1;PMS_P2;Temp;Humidity;BMP_temperature;BMP_pressure;BME280_temperature;BME280_humidity;BME280_pressure;Samples;Min_cycle;Max_cycle;Signal;HPM_P1;HPM_P2
2022/10/10 00:00:50;;;;;;;1.20;1.20;;;12.40;99.90;;;;;;5023565;28;20664;-62
2022/10/10 00:03:19;;;;;;;0.83;0.83;;;12.30;99.90;;;;;;5023702;28;20289;-63
2022/10/10 00:05:46;;;;;;;1.10;1.00;;;12.20;99.90;;;;;;5024548;28;20213;-64
2022/10/10 00:08:14;;;;;;;0.90;0.90;;;12.30;99.90;;;;;;5023384;28;20606;-62
2022/10/10 00:10:41;;;;;;;0.90;0.90;;;12.30;99.90;;;;;;5024017;28;20806;-65
2022/10/10 00:13:08;;;;;;;0.80;0.80;;;12.30;99.90;;;;;;5023582;28;20197;-63
2022/10/10 00:15:34;;;;;;;0.80;0.80;;;12.30;99.90;;;;;;5024028;28;20708;-63
2022/10/10 00:18:02;;;;;;;1.00;1.00;;;12.40;99.90;;;;;;5021853;28;20220;-63
2022/10/10 00:20:29;;;;;;;1.30;0.83;;;12.40;99.90;;;;;;5019605;28;20681;-63
2022/10/10 00:22:56;;;;;;;1.10;1.00;;;12.50;99.90;;;;;;5020572;28;20201;-64
2022/10/10 00:25:24;;;;;;;0.90;0.90;;;12.50;99.90;;;;;;5023325;28;20307;-63
2022/10/10 00:27:51;;;;;;;0.93;0.93;;;12.50;99.90;;;;;;5023711;28;20230;-64
2022/10/10 00:30:18;;;;;;;0.87;0.87;;;12.40;99.90;;;;;;5022877;28;20637;-64
2022/10/10 00:32:45;;;;;;;0.90;0.90;;;12.40;99.90;;;;;;5024528;28;20247;-62
2022/10/10 00:35:12;;;;;;;0.90;0.90;;;12.40;99.90;;;;;;5021793;28;20208;-62
2022/10/10 00:37:39;;;;;;;1.03;1.03;;;12.40;99.90;;;;;;5023797;28;20228;-63
2022/10/10 00:40:07;;;;;;;0.80;0.80;;;12.30;99.90;;;;;;5022681;28;20215;-63
2022/10/10 00:42:36;;;;;;;0.90;0.90;;;12.30;99.90;;;;;;5019824;28;20284;-64
2022/10/10 00:45:26;;;;;;;0.83;0.83;;;12.30;99.90;;;;;;5024787;28;20200;-62
2022/10/10 00:47:57;;;;;;;0.80;0.80;;;12.20;99.90;;;;;;5016671;28;20312;-64
2022/10/10 00:50:24;;;;;;;1.20;0.90;;;12.20;99.90;;;;;;5027666;28;20226;-64
2022/10/10 00:52:52;;;;;;;0.80;0.80;;;12.20;99.90;;;;;;5020897;28;20225;-63
2022/10/10 00:55:19;;;;;;;0.97;0.97;;;12.20;99.90;;;;;;5029830;28;20211;-63
2022/10/10 00:57:48;;;;;;;1.33;1.00;;;12.20;99.90;;;;;;5024735;28;20221;-64
2022/10/10 01:00:16;;;;;;;1.00;0.97;;;12.20;99.90;;;;;;5035861;28;20229;-64
2022/10/10 01:02:42;;;;;;;0.87;0.87;;;12.20;99.90;;;;;;5048477;28;20236;-62
2022/10/10 01:05:10;;;;;;;0.90;0.90;;;12.20;99.90;;;;;;5027583;28;20248;-62
2022/10/10 01:07:37;;;;;;;0.97;0.97;;;12.20;99.90;;;;;;5029655;28;20226;-63
2022/10/10 01:10:08;;;;;;;0.90;0.90;;;12.20;99.90;;;;;;5025051;28;20751;-62
2022/10/10 01:12:45;;;;;;;0.90;0.90;;;12.10;99.90;;;;;;5031333;28;20263;-63
2022/10/10 01:15:22;;;;;;;0.90;0.90;;;12.20;99.90;;;;;;5024700;28;20288;-63
2022/10/10 01:17:57;;;;;;;0.93;0.93;;;12.20;99.90;;;;;;5027291;28;20222;-62
2022/10/10 01:20:44;;;;;;;1.10;1.10;;;12.20;99.90;;;;;;5027605;28;20575;-63
2022/10/10 01:23:41;;;;;;;0.90;0.90;;;12.20;99.90;;;;;;5027045;28;20296;-63
2022/10/10 01:26:31;;;;;;;0.83;0.80;;;12.30;99.90;;;;;;5019118;28;20209;-63
2022/10/10 01:29:08;;;;;;;0.80;0.80;;;12.20;99.90;;;;;;5020749;28;20229;-65
2022/10/10 01:31:40;;;;;;;1.23;1.10;;;12.20;99.90;;;;;;5025245;28;20231;-64
2022/10/10 01:34:16;;;;;;;0.90;0.90;;;12.20;99.90;;;;;;5020521;28;20209;-63
2022/10/10 01:36:53;;;;;;;0.90;0.90;;;12.20;99.90;;;;;;5029921;28;20238;-63
2022/10/10 01:39:27;;;;;;;0.93;0.93;;;12.20;99.90;;;;;;5030952;28;20247;-63
2022/10/10 01:41:59;;;;;;;1.17;1.10;;;12.30;99.90;;;;;;5033378;28;20280;-62
2022/10/10 01:44:27;;;;;;;0.83;0.83;;;12.20;99.90;;;;;;5025128;28;20284;-63
2022/10/10 01:46:54;;;;;;;1.00;1.00;;;12.30;99.90;;;;;;5027462;28;20201;-63
2022/10/10 01:49:24;;;;;;;0.97;0.97;;;12.30;99.90;;;;;;5019844;28;20212;-63
2022/10/10 01:52:02;;;;;;;1.07;1.07;;;12.30;99.90;;;;;;5021308;28;20221;-63
2022/10/10 01:54:39;;;;;;;0.87;0.87;;;12.30;99.90;;;;;;5025693;28;20291;-62
2022/10/10 01:57:18;;;;;;;0.90;0.90;;;12.20;99.90;;;;;;5027384;28;20586;-62
2022/10/10 01:59:58;;;;;;;1.03;0.90;;;12.20;99.90;;;;;;5025704;28;20207;-63
2022/10/10 02:02:36;;;;;;;0.90;0.90;;;12.30;99.90;;;;;;5029935;28;20197;-63
2022/10/10 02:05:08;;;;;;;0.80;0.80;;;12.30;99.90;;;;;;5024605;28;20220;-61
2022/10/10 02:07:43;;;;;;;0.90;0.90;;;12.20;99.90;;;;;;5028386;28;20231;-63
2022/10/10 02:10:13;;;;;;;0.90;0.90;;;12.30;99.90;;;;;;5026320;28;20208;-62
2022/10/10 02:12:40;;;;;;;1.03;1.00;;;12.30;99.90;;;;;;5029014;28;20300;-62
2022/10/10 02:15:13;;;;;;;1.03;1.03;;;12.30;99.90;;;;;;5025042;28;20224;-63
2022/10/10 02:17:41;;;;;;;0.80;0.80;;;12.40;99.90;;;;;;5026919;28;20678;-63
2022/10/10 02:20:12;;;;;;;1.00;1.00;;;12.40;99.90;;;;;;5028536;28;20316;-63
2022/10/10 02:22:41;;;;;;;1.07;1.00;;;12.30;99.90;;;;;;5023312;28;20265;-63
2022/10/10 02:25:09;;;;;;;0.80;0.80;;;12.30;99.90;;;;;;5021442;28;20300;-63
2022/10/10 02:27:40;;;;;;;0.97;0.97;;;12.30;99.90;;;;;;5018594;28;20218;-63
2022/10/10 02:30:09;;;;;;;1.03;1.03;;;12.30;99.90;;;;;;5024638;28;20206;-63
2022/10/10 02:32:40;;;;;;;1.00;1.00;;;12.30;99.90;;;;;;5029468;28;20235;-63
2022/10/10 02:35:11;;;;;;;0.87;0.87;;;12.30;99.90;;;;;;5023917;28;20209;-64
2022/10/10 02:37:41;;;;;;;0.90;0.90;;;12.30;99.90;;;;;;5021449;28;20279;-61
2022/10/10 02:40:11;;;;;;;0.70;0.70;;;12.40;99.90;;;;;;5023986;28;20224;-63
2022/10/10 02:42:40;;;;;;;0.80;0.80;;;12.30;99.90;;;;;;5030919;28;20196;-63
2022/10/10 02:45:09;;;;;;;1.43;1.00;;;12.30;99.90;;;;;;5023943;28;20236;-61
2022/10/10 02:47:35;;;;;;;0.80;0.80;;;12.30;99.90;;;;;;5020102;28;20227;-61
2022/10/10 02:50:02;;;;;;;0.90;0.90;;;12.20;99.90;;;;;;5025241;28;20291;-61
2022/10/10 02:52:29;;;;;;;0.70;0.70;;;12.20;99.90;;;;;;5020862;28;20223;-64
2022/10/10 02:54:56;;;;;;;1.10;1.10;;;12.20;99.90;;;;;;5021890;28;20204;-61
2022/10/10 02:57:23;;;;;;;0.90;0.90;;;12.30;99.90;;;;;;5030831;28;20216;-62
2022/10/10 02:59:50;;;;;;;0.73;0.73;;;12.30;99.90;;;;;;5028654;28;20201;-62
2022/10/10 03:02:18;;;;;;;0.93;0.90;;;12.30;99.90;;;;;;5022321;28;20254;-62
2022/10/10 03:04:45;;;;;;;0.80;0.80;;;12.30;99.90;;;;;;5025774;28;20284;-62
2022/10/10 03:07:11;;;;;;;1.00;1.00;;;12.40;99.90;;;;;;5016518;28;20216;-63
2022/10/10 03:09:38;;;;;;;1.00;1.00;;;12.40;99.90;;;;;;5025568;28;20210;-63
2022/10/10 03:12:05;;;;;;;0.98;0.98;;;12.30;99.90;;;;;;5023997;28;20224;-61
2022/10/10 03:14:32;;;;;;;2.30;1.10;;;12.30;99.90;;;;;;5021036;28;20590;-63
2022/10/10 03:16:59;;;;;;;1.00;1.00;;;12.30;99.90;;;;;;5018766;28;20212;-62
2022/10/10 03:19:27;;;;;;;0.93;0.93;;;12.30;99.90;;;;;;5023434;28;20251;-64
2022/10/10 03:21:54;;;;;;;1.00;1.00;;;12.30;99.90;;;;;;5026444;28;20207;-63
2022/10/10 03:24:21;;;;;;;0.90;0.90;;;12.30;99.90;;;;;;5021790;28;20292;-63
2022/10/10 03:26:48;;;;;;;0.97;0.97;;;12.30;99.90;;;;;;5030039;28;20207;-63
2022/10/10 03:29:15;;;;;;;0.87;0.87;;;12.60;99.90;;;;;;5019462;28;20241;-63
2022/10/10 03:31:42;;;;;;;0.90;0.90;;;12.30;99.90;;;;;;5023273;28;20308;-66
2022/10/10 03:34:08;;;;;;;1.00;1.00;;;12.40;99.90;;;;;;5029626;28;20627;-63
2022/10/10 03:36:36;;;;;;;0.90;0.90;;;12.40;99.90;;;;;;5014805;28;20201;-63
2022/10/10 03:39:04;;;;;;;0.70;0.70;;;12.50;99.90;;;;;;4978635;28;1103683;-62
2022/10/10 03:41:31;;;;;;;1.00;1.00;;;12.50;99.90;;;;;;5027185;28;20201;-64
2022/10/10 03:43:57;;;;;;;1.00;1.00;;;12.60;99.90;;;;;;5026567;28;20232;-63
2022/10/10 03:46:24;;;;;;;0.90;0.90;;;12.60;99.90;;;;;;5027022;28;20351;-62
2022/10/10 03:48:51;;;;;;;0.83;0.83;;;12.60;99.90;;;;;;5026023;28;20293;-62
2022/10/10 03:51:18;;;;;;;1.00;1.00;;;12.70;99.90;;;;;;5027964;28;20556;-63
2022/10/10 03:53:46;;;;;;;0.90;0.90;;;12.70;99.90;;;;;;5025076;28;20852;-63
2022/10/10 03:56:13;;;;;;;1.00;1.00;;;12.70;99.90;;;;;;5025355;28;20762;-63
2022/10/10 03:58:40;;;;;;;1.00;1.00;;;12.70;99.90;;;;;;5024010;28;20227;-61
2022/10/10 04:01:07;;;;;;;0.97;0.90;;;12.70;99.90;;;;;;5026233;28;20208;-62
2022/10/10 04:03:34;;;;;;;1.07;0.97;;;12.70;99.90;;;;;;5026754;28;20215;-61
2022/10/10 04:06:01;;;;;;;0.90;0.90;;;12.70;99.90;;;;;;5023215;28;20683;-61
2022/10/10 04:08:28;;;;;;;0.90;0.90;;;12.70;99.90;;;;;;5016494;28;20228;-62
2022/10/10 04:10:57;;;;;;;1.10;1.00;;;12.60;99.90;;;;;;5023911;28;20212;-63
2022/10/10 04:13:26;;;;;;;1.47;1.37;;;12.70;99.90;;;;;;5024149;28;20282;-62
2022/10/10 04:15:54;;;;;;;0.90;0.90;;;12.70;99.90;;;;;;5025496;28;20225;-62
2022/10/10 04:18:22;;;;;;;0.77;0.77;;;12.70;99.90;;;;;;5018640;28;20234;-62
2022/10/10 04:20:49;;;;;;;1.00;1.00;;;12.70;99.90;;;;;;5023855;28;20200;-63
2022/10/10 04:23:16;;;;;;;0.80;0.80;;;12.70;99.90;;;;;;5018967;28;20293;-62
2022/10/10 04:25:43;;;;;;;0.70;0.70;;;12.70;99.90;;;;;;5024577;28;20207;-61
2022/10/10 04:28:13;;;;;;;0.90;0.90;;;12.80;99.90;;;;;;5023199;28;20314;-62
2022/10/10 04:30:40;;;;;;;1.15;1.10;;;12.90;99.90;;;;;;5023941;28;20196;-62
2022/10/10 04:33:07;;;;;;;1.27;1.17;;;12.90;99.90;;;;;;5024735;28;20225;-63
2022/10/10 04:35:34;;;;;;;1.23;1.13;;;12.90;99.90;;;;;;5022403;28;20201;-63
2022/10/10 04:38:01;;;;;;;1.00;1.00;;;12.80;99.90;;;;;;5022881;28;20236;-64
2022/10/10 04:40:28;;;;;;;1.00;1.00;;;12.80;99.90;;;;;;5028166;28;20291;-64
2022/10/10 04:42:55;;;;;;;0.83;0.83;;;12.80;99.90;;;;;;5028209;28;20288;-62
2022/10/10 04:45:25;;;;;;;0.90;0.90;;;12.80;99.90;;;;;;5024757;28;20204;-62
2022/10/10 04:47:52;;;;;;;1.00;1.00;;;12.90;99.90;;;;;;5022050;28;20505;-63
2022/10/10 04:50:19;;;;;;;0.87;0.87;;;12.90;99.90;;;;;;5020209;28;20201;-63
2022/10/10 04:52:46;;;;;;;0.93;0.93;;;12.90;99.90;;;;;;5034796;28;20221;-61
2022/10/10 04:55:12;;;;;;;1.30;1.20;;;12.90;99.90;;;;;;5026133;28;20267;-62
2022/10/10 04:57:39;;;;;;;1.03;1.03;;;12.80;99.90;;;;;;5027733;28;20785;-61
2022/10/10 05:00:08;;;;;;;0.93;0.93;;;12.90;99.90;;;;;;5017306;28;20216;-63
2022/10/10 05:02:36;;;;;;;1.13;1.07;;;12.90;99.90;;;;;;5023088;28;20550;-63
2022/10/10 05:05:03;;;;;;;1.30;1.20;;;13.00;99.90;;;;;;5031953;28;20272;-61
2022/10/10 05:07:30;;;;;;;1.00;1.00;;;13.00;99.90;;;;;;5029271;28;20225;-61
2022/10/10 05:09:57;;;;;;;1.00;1.00;;;13.10;99.90;;;;;;5034473;28;20209;-61
2022/10/10 05:12:23;;;;;;;1.00;1.00;;;13.10;99.90;;;;;;5030963;28;20232;-61
2022/10/10 05:14:50;;;;;;;0.93;0.93;;;13.10;99.90;;;;;;5038907;28;20243;-62
2022/10/10 05:17:18;;;;;;;1.00;1.00;;;13.10;99.90;;;;;;5022143;28;20318;-62
2022/10/10 05:19:46;;;;;;;1.10;1.10;;;13.20;99.90;;;;;;5020438;28;20220;-62
2022/10/10 05:22:13;;;;;;;0.90;0.90;;;13.20;99.90;;;;;;5020656;28;20292;-64
2022/10/10 05:24:40;;;;;;;1.00;1.00;;;13.20;99.90;;;;;;5016305;28;20255;-63
2022/10/10 05:27:07;;;;;;;0.90;0.90;;;13.30;99.90;;;;;;5027602;28;20213;-62
2022/10/10 05:29:33;;;;;;;1.10;1.10;;;13.30;99.90;;;;;;5014963;28;20651;-62
2022/10/10 05:32:00;;;;;;;1.03;1.03;;;13.30;99.90;;;;;;5028113;28;20320;-62
2022/10/10 05:34:27;;;;;;;1.37;1.00;;;13.30;99.90;;;;;;5023446;28;20290;-63
2022/10/10 05:36:56;;;;;;;1.07;1.00;;;13.20;99.90;;;;;;5021705;28;20248;-62
2022/10/10 05:39:23;;;;;;;0.97;0.97;;;13.30;99.90;;;;;;5029748;28;20240;-63
2022/10/10 05:41:50;;;;;;;1.00;1.00;;;13.20;99.90;;;;;;5015502;28;20201;-63
2022/10/10 05:44:17;;;;;;;1.20;1.10;;;13.20;99.90;;;;;;5031680;28;20288;-63
2022/10/10 05:46:44;;;;;;;1.00;1.00;;;13.10;99.90;;;;;;5023189;28;20304;-64
2022/10/10 05:49:12;;;;;;;1.00;1.00;;;13.10;99.90;;;;;;5022602;28;20267;-64
2022/10/10 05:51:39;;;;;;;1.73;1.30;;;13.30;99.90;;;;;;5025567;28;20260;-62
2022/10/10 05:54:07;;;;;;;1.10;1.10;;;13.00;99.90;;;;;;5031624;28;20312;-65
2022/10/10 05:56:34;;;;;;;1.30;1.20;;;13.00;99.90;;;;;;5027332;28;20205;-62
2022/10/10 05:59:01;;;;;;;0.80;0.80;;;12.90;99.90;;;;;;5031076;28;20229;-62
2022/10/10 06:01:28;;;;;;;0.93;0.93;;;12.90;99.90;;;;;;5028693;28;20287;-62
2022/10/10 06:03:55;;;;;;;0.87;0.87;;;12.80;99.90;;;;;;5027570;28;20203;-62
2022/10/10 06:06:23;;;;;;;0.90;0.90;;;12.90;99.90;;;;;;5027002;28;20689;-63
2022/10/10 06:08:50;;;;;;;0.93;0.93;;;13.00;99.90;;;;;;5027486;28;20264;-62
2022/10/10 06:11:19;;;;;;;1.43;1.00;;;12.90;99.90;;;;;;5026194;28;20212;-61
2022/10/10 06:13:49;;;;;;;0.90;0.90;;;12.90;99.90;;;;;;5029325;28;20231;-64
2022/10/10 06:16:16;;;;;;;1.50;1.13;;;12.90;99.90;;;;;;5026648;28;20233;-61
2022/10/10 06:18:43;;;;;;;1.00;1.00;;;12.90;99.90;;;;;;5020981;28;20685;-64
2022/10/10 06:21:12;;;;;;;1.00;1.00;;;12.90;99.90;;;;;;5016289;28;20288;-63
2022/10/10 06:23:39;;;;;;;0.90;0.90;;;12.80;99.90;;;;;;5026528;28;20730;-61
2022/10/10 06:26:06;;;;;;;0.97;0.97;;;12.80;99.90;;;;;;5017776;28;20579;-63
2022/10/10 06:28:34;;;;;;;0.90;0.90;;;12.90;99.90;;;;;;5024043;28;20315;-64
2022/10/10 06:31:02;;;;;;;0.97;0.97;;;12.90;99.90;;;;;;5015273;28;20232;-61
2022/10/10 06:33:29;;;;;;;0.80;0.80;;;12.90;99.90;;;;;;5013728;28;20722;-61
2022/10/10 06:35:56;;;;;;;0.90;0.90;;;12.90;99.90;;;;;;5023576;28;20291;-62
2022/10/10 06:38:23;;;;;;;1.23;1.00;;;12.90;99.90;;;;;;5020071;28;20323;-62
2022/10/10 06:40:50;;;;;;;1.03;1.03;;;13.00;99.90;;;;;;5025742;28;20228;-62
2022/10/10 06:43:17;;;;;;;1.00;1.00;;;13.00;99.90;;;;;;5021940;28;20201;-62
2022/10/10 06:45:50;;;;;;;1.30;1.20;;;13.00;99.90;;;;;;5018947;28;20397;-61
2022/10/10 06:48:16;;;;;;;1.20;1.20;;;13.10;99.90;;;;;;5035407;28;20226;-61
2022/10/10 06:50:43;;;;;;;0.87;0.87;;;13.00;99.90;;;;;;5023149;28;20209;-62
2022/10/10 06:53:10;;;;;;;1.10;1.10;;;12.90;99.90;;;;;;5027234;28;20767;-61
2022/10/10 06:55:37;;;;;;;0.90;0.90;;;12.90;99.90;;;;;;5020190;28;20205;-63
2022/10/10 06:58:04;;;;;;;1.57;1.37;;;13.00;99.90;;;;;;5026510;28;20220;-64
2022/10/10 07:00:31;;;;;;;1.05;1.05;;;13.00;99.90;;;;;;5013401;28;20208;-63
2022/10/10 07:02:59;;;;;;;1.30;1.20;;;13.00;99.90;;;;;;5014592;28;20319;-62
2022/10/10 07:05:26;;;;;;;1.87;1.40;;;13.00;99.90;;;;;;5014341;28;20277;-62
2022/10/10 07:07:53;;;;;;;1.00;1.00;;;13.00;99.90;;;;;;5010205;28;20572;-63
2022/10/10 07:10:20;;;;;;;1.30;1.30;;;13.10;99.90;;;;;;5012340;28;20217;-62
2022/10/10 07:12:47;;;;;;;1.17;1.17;;;13.10;99.90;;;;;;5013010;28;20205;-64
2022/10/10 07:15:14;;;;;;;1.10;1.10;;;13.20;99.90;;;;;;5013156;28;20754;-62
2022/10/10 07:17:41;;;;;;;1.30;1.20;;;13.30;99.90;;;;;;5014370;28;20221;-64
2022/10/10 07:20:09;;;;;;;1.10;1.10;;;13.40;99.90;;;;;;5014082;28;20209;-63
2022/10/10 07:22:36;;;;;;;1.30;1.20;;;13.50;99.90;;;;;;5021203;28;20283;-64
2022/10/10 07:25:03;;;;;;;1.80;1.07;;;13.70;99.90;;;;;;5011493;28;20209;-63
2022/10/10 07:27:30;;;;;;;1.00;1.00;;;13.70;99.90;;;;;;5011713;28;20225;-64
2022/10/10 07:29:57;;;;;;;1.30;1.20;;;13.90;99.90;;;;;;5013551;28;20639;-61
2022/10/10 07:32:24;;;;;;;1.30;1.20;;;14.00;99.90;;;;;;5019614;28;20223;-64
2022/10/10 07:34:50;;;;;;;1.20;1.20;;;14.30;99.90;;;;;;5032079;28;20229;-61
2022/10/10 07:37:18;;;;;;;1.00;1.00;;;14.20;99.90;;;;;;5031922;28;21128;-64
2022/10/10 07:39:45;;;;;;;1.00;1.00;;;14.30;99.90;;;;;;5032724;28;20256;-63
2022/10/10 07:42:12;;;;;;;1.03;1.00;;;14.40;99.90;;;;;;5031992;28;20304;-63
2022/10/10 07:44:39;;;;;;;1.10;1.10;;;14.50;99.90;;;;;;5019015;28;20205;-62
2022/10/10 07:47:06;;;;;;;1.13;1.03;;;14.70;99.90;;;;;;5015912;28;20633;-61
2022/10/10 07:49:33;;;;;;;1.20;1.20;;;14.80;99.90;;;;;;5014363;28;20575;-62
2022/10/10 07:52:00;;;;;;;1.20;1.20;;;15.00;99.90;;;;;;5014407;28;20292;-65
2022/10/10 07:54:29;;;;;;;2.07;1.20;;;15.10;99.90;;;;;;5013807;28;20226;-64
2022/10/10 07:56:56;;;;;;;1.23;1.23;;;15.30;99.90;;;;;;5011291;28;20300;-62
2022/10/10 07:59:23;;;;;;;1.10;1.10;;;15.50;99.90;;;;;;5018591;28;20292;-65
2022/10/10 08:01:50;;;;;;;0.90;0.90;;;15.60;99.90;;;;;;5021664;28;20237;-63
2022/10/10 08:04:17;;;;;;;1.00;1.00;;;15.80;99.90;;;;;;5020380;28;20261;-61
2022/10/10 08:06:45;;;;;;;0.80;0.80;;;15.90;99.90;;;;;;5017854;28;20201;-63
2022/10/10 08:09:12;;;;;;;1.00;1.00;;;16.00;99.90;;;;;;5024534;28;20311;-63
2022/10/10 08:11:40;;;;;;;1.83;1.20;;;16.20;99.90;;;;;;5019573;28;20217;-63
2022/10/10 08:14:07;;;;;;;1.43;1.10;;;16.30;99.90;;;;;;5018448;28;20316;-61
2022/10/10 08:16:33;;;;;;;0.90;0.90;;;16.50;99.90;;;;;;5022861;28;20634;-63
2022/10/10 08:19:00;;;;;;;0.98;0.98;;;16.70;99.90;;;;;;5020369;28;20658;-61
2022/10/10 08:21:27;;;;;;;1.20;1.20;;;16.70;99.90;;;;;;5016008;28;20231;-63
2022/10/10 08:23:55;;;;;;;1.50;1.20;;;16.80;99.90;;;;;;5013134;28;20207;-63
2022/10/10 08:26:22;;;;;;;1.50;1.40;;;16.90;99.90;;;;;;5015378;28;20671;-61
2022/10/10 08:28:50;;;;;;;1.63;1.52;;;16.80;99.90;;;;;;5013173;28;20221;-63
2022/10/10 08:31:18;;;;;;;1.40;1.30;;;16.90;99.90;;;;;;5018815;28;20569;-63
2022/10/10 08:33:47;;;;;;;1.23;1.23;;;16.90;99.90;;;;;;5012272;28;20221;-63
2022/10/10 08:36:15;;;;;;;1.10;1.10;;;17.10;99.90;;;;;;5015582;28;20299;-63
2022/10/10 08:38:42;;;;;;;1.50;1.40;;;17.10;99.90;;;;;;5010749;28;20241;-63
2022/10/10 08:41:11;;;;;;;1.40;1.30;;;17.30;99.90;;;;;;5008024;28;20240;-61
2022/10/10 08:43:44;;;;;;;1.33;1.27;;;17.40;99.90;;;;;;5025178;28;20224;-61
2022/10/10 08:46:19;;;;;;;1.50;1.40;;;17.50;99.90;;;;;;5023385;28;20296;-64
2022/10/10 08:48:48;;;;;;;1.30;1.20;;;17.80;99.90;;;;;;5007846;28;20598;-61
2022/10/10 08:51:24;;;;;;;2.47;1.30;;;18.00;99.90;;;;;;5010885;28;20659;-63
2022/10/10 08:53:55;;;;;;;1.50;1.40;;;18.10;99.90;;;;;;5011024;28;20220;-62
2022/10/10 08:56:28;;;;;;;1.30;1.30;;;18.20;99.90;;;;;;5013958;28;20303;-62
2022/10/10 08:58:59;;;;;;;1.50;1.40;;;18.30;99.90;;;;;;5007374;28;20224;-63
2022/10/10 09:01:32;;;;;;;1.70;1.30;;;18.50;99.90;;;;;;5010978;28;20224;-63
2022/10/10 09:04:01;;;;;;;1.30;1.30;;;18.70;99.90;;;;;;5010963;28;20205;-64
2022/10/10 09:06:44;;;;;;;1.03;1.03;;;18.80;99.90;;;;;;5011084;28;20203;-63
2022/10/10 09:09:21;;;;;;;1.33;1.30;;;19.10;99.90;;;;;;5007804;28;20612;-64
2022/10/10 09:12:00;;;;;;;1.50;1.40;;;19.30;99.90;;;;;;5002117;28;20201;-64
2022/10/10 09:14:37;;;;;;;1.37;1.27;;;19.50;99.90;;;;;;5004002;28;20224;-63
2022/10/10 09:17:18;;;;;;;1.00;1.00;;;19.80;99.90;;;;;;5009675;28;20213;-64
2022/10/10 09:19:55;;;;;;;1.53;1.47;;;19.90;99.90;;;;;;5013591;28;20201;-63
2022/10/10 09:22:26;;;;;;;1.23;1.17;;;20.00;99.90;;;;;;5012799;28;20205;-64
2022/10/10 09:24:57;;;;;;;1.60;1.50;;;20.00;99.90;;;;;;5006943;28;20681;-63
2022/10/10 09:27:28;;;;;;;1.50;1.40;;;20.00;99.90;;;;;;5013012;28;20225;-63
2022/10/10 09:30:02;;;;;;;1.20;1.10;;;20.20;99.90;;;;;;5014380;28;20743;-63
2022/10/10 09:32:36;;;;;;;1.23;1.10;;;20.30;99.90;;;;;;5024876;28;20734;-64
2022/10/10 09:35:14;;;;;;;1.10;1.07;;;20.30;99.90;;;;;;5020955;28;20231;-63
2022/10/10 09:37:44;;;;;;;1.03;1.03;;;20.50;99.90;;;;;;5013627;28;20229;-64
2022/10/10 09:40:20;;;;;;;1.10;1.00;;;20.50;99.90;;;;;;5010330;28;20564;-64
2022/10/10 09:42:47;;;;;;;1.00;1.00;;;20.60;99.90;;;;;;5007073;28;20637;-63
2022/10/10 09:45:18;;;;;;;0.90;0.90;;;20.70;99.90;;;;;;5013961;28;20209;-63
2022/10/10 09:47:48;;;;;;;1.05;1.05;;;20.80;99.90;;;;;;5011880;28;20283;-63
2022/10/10 09:50:16;;;;;;;1.20;1.07;;;20.90;99.90;;;;;;5015033;28;20259;-64
2022/10/10 09:52:44;;;;;;;1.27;1.20;;;20.90;99.90;;;;;;5012919;28;20208;-63
2022/10/10 09:55:27;;;;;;;1.43;1.20;;;21.00;99.90;;;;;;5014045;28;20706;-63
2022/10/10 09:57:57;;;;;;;1.20;1.10;;;21.00;99.90;;;;;;5008988;28;20236;-63
2022/10/10 10:00:33;;;;;;;1.20;1.10;;;21.10;99.90;;;;;;5016123;28;20204;-64
2022/10/10 10:03:11;;;;;;;0.87;0.87;;;21.10;99.90;;;;;;5013944;28;20216;-64
2022/10/10 10:05:39;;;;;;;1.83;1.30;;;21.40;99.90;;;;;;5012829;28;20276;-64
2022/10/10 10:08:11;;;;;;;1.10;1.10;;;21.50;99.90;;;;;;5022925;28;20263;-63
2022/10/10 10:10:38;;;;;;;1.47;1.37;;;21.60;99.90;;;;;;5029435;28;20686;-63
2022/10/10 10:13:13;;;;;;;1.02;0.95;;;21.80;99.90;;;;;;5009154;28;20201;-64
2022/10/10 10:15:48;;;;;;;0.98;0.98;;;21.90;99.90;;;;;;5015633;28;20220;-63
2022/10/10 10:18:27;;;;;;;1.30;1.20;;;22.10;99.90;;;;;;5018931;28;20739;-63
2022/10/10 10:21:08;;;;;;;0.87;0.87;;;22.30;99.90;;;;;;5011696;28;20205;-63
2022/10/10 10:23:40;;;;;;;1.48;1.38;;;22.40;99.90;;;;;;5010724;28;20201;-64
2022/10/10 10:26:16;;;;;;;0.98;0.98;;;22.60;99.90;;;;;;5009592;28;20212;-64
2022/10/10 10:28:43;;;;;;;1.20;1.10;;;22.60;99.90;;;;;;5012597;28;20232;-64
2022/10/10 10:31:19;;;;;;;1.20;1.10;;;22.70;99.90;;;;;;5015502;28;20210;-64
2022/10/10 10:33:57;;;;;;;1.23;1.13;;;22.70;99.90;;;;;;5006312;28;20296;-63
2022/10/10 10:36:33;;;;;;;1.10;1.00;;;22.90;99.90;;;;;;5010883;28;21245;-62
2022/10/10 10:39:10;;;;;;;1.27;1.17;;;22.90;99.90;;;;;;5020748;28;20229;-63
2022/10/10 10:41:42;;;;;;;1.20;1.10;;;22.90;99.90;;;;;;5006424;28;20224;-64
2022/10/10 10:44:24;;;;;;;1.15;0.90;;;22.80;99.90;;;;;;5009050;28;20213;-63
2022/10/10 10:47:01;;;;;;;1.27;1.17;;;22.90;99.90;;;;;;5014088;28;20458;-65
2022/10/10 10:49:36;;;;;;;1.63;1.40;;;22.90;99.90;;;;;;5008939;28;20643;-64
2022/10/10 10:52:35;;;;;;;1.20;1.10;;;23.00;99.90;;;;;;5009572;28;20264;-64
2022/10/10 10:55:14;;;;;;;1.30;1.20;;;23.00;99.90;;;;;;5000269;28;20218;-63
2022/10/10 10:57:54;;;;;;;0.90;0.90;;;23.10;99.90;;;;;;5005206;28;20232;-63
2022/10/10 11:00:22;;;;;;;1.30;1.20;;;23.20;99.90;;;;;;5000058;28;20739;-64
2022/10/10 11:03:05;;;;;;;0.82;0.82;;;23.30;99.90;;;;;;5008145;28;20304;-64
2022/10/10 11:05:42;;;;;;;1.27;1.17;;;23.40;99.90;;;;;;5001905;28;20526;-63
2022/10/10 11:08:39;;;;;;;0.80;0.80;;;23.30;99.90;;;;;;5001529;28;20312;-64
2022/10/10 11:11:19;;;;;;;1.45;1.27;;;23.40;99.90;;;;;;5012163;28;20205;-64
2022/10/10 11:13:54;;;;;;;1.47;1.37;;;23.40;99.90;;;;;;5013680;28;20573;-64
2022/10/10 11:16:26;;;;;;;1.70;1.10;;;23.30;99.90;;;;;;5020250;28;20239;-63
2022/10/10 11:19:07;;;;;;;1.30;1.20;;;23.30;99.90;;;;;;5016998;28;20229;-63
2022/10/10 11:21:41;;;;;;;1.30;1.20;;;23.50;99.90;;;;;;5012277;28;20223;-63
2022/10/10 11:24:13;;;;;;;1.23;1.10;;;23.50;99.90;;;;;;5009240;28;20308;-64
2022/10/10 11:26:44;;;;;;;1.77;1.25;;;23.60;99.90;;;;;;4999400;28;20698;-63
2022/10/10 11:29:15;;;;;;;1.23;1.15;;;23.60;99.90;;;;;;5026122;28;20228;-64
2022/10/10 11:31:47;;;;;;;1.48;1.30;;;23.60;99.90;;;;;;5020032;28;20556;-63
2022/10/10 11:34:21;;;;;;;1.70;1.23;;;23.60;99.90;;;;;;5026083;28;20205;-64
2022/10/10 11:36:51;;;;;;;1.13;1.02;;;23.60;99.90;;;;;;5028713;28;20284;-64
2022/10/10 11:39:23;;;;;;;1.33;1.20;;;23.70;99.90;;;;;;5039183;28;20267;-64
2022/10/10 11:41:55;;;;;;;1.30;1.20;;;23.70;99.90;;;;;;5031163;28;20247;-63
2022/10/10 11:44:25;;;;;;;1.95;1.20;;;23.80;99.90;;;;;;5016827;28;20597;-63
2022/10/10 11:46:59;;;;;;;2.90;1.30;;;23.70;99.90;;;;;;5020303;28;20262;-63
2022/10/10 11:49:34;;;;;;;1.30;1.20;;;23.80;99.90;;;;;;5024160;28;20205;-63
2022/10/10 11:52:21;;;;;;;1.60;1.08;;;23.90;99.90;;;;;;5023116;28;20220;-64
2022/10/10 11:54:55;;;;;;;1.85;1.20;;;23.90;99.90;;;;;;5006612;28;21027;-63
2022/10/10 11:57:30;;;;;;;1.17;1.08;;;23.90;99.90;;;;;;5011103;28;20563;-63
2022/10/10 12:00:03;;;;;;;1.10;1.10;;;23.90;99.90;;;;;;5007920;28;20201;-63
2022/10/10 12:02:33;;;;;;;1.30;1.20;;;23.90;99.90;;;;;;5012362;28;20197;-63
2022/10/10 12:05:00;;;;;;;1.52;1.42;;;24.00;99.90;;;;;;5014346;28;20579;-63
2022/10/10 12:07:35;;;;;;;1.70;1.35;;;24.00;99.90;;;;;;5008344;28;20307;-64
2022/10/10 12:10:09;;;;;;;1.48;1.30;;;24.00;99.90;;;;;;5015050;28;20201;-64
2022/10/10 12:12:39;;;;;;;1.10;1.10;;;24.00;99.90;;;;;;5010763;28;20209;-63
2022/10/10 12:15:09;;;;;;;1.05;1.05;;;24.00;99.90;;;;;;5012331;28;20229;-63
2022/10/10 12:17:42;;;;;;;2.55;1.67;;;24.00;99.90;;;;;;5018945;28;20237;-63
2022/10/10 12:20:11;;;;;;;1.33;1.20;;;24.00;99.90;;;;;;5000369;28;20297;-63
2022/10/10 12:22:39;;;;;;;1.38;1.27;;;24.00;99.90;;;;;;5027360;28;20209;-64
2022/10/10 12:25:21;;;;;;;1.77;1.60;;;24.00;99.90;;;;;;5014670;28;20205;-64
2022/10/10 12:28:05;;;;;;;1.33;1.23;;;24.00;99.90;;;;;;5015388;28;20227;-63
2022/10/10 12:30:32;;;;;;;2.05;1.38;;;24.10;99.90;;;;;;5009587;28;20299;-63
2022/10/10 12:32:59;;;;;;;1.58;1.48;;;24.10;99.90;;;;;;5020194;28;20208;-64
2022/10/10 12:35:38;;;;;;;1.60;1.40;;;24.20;99.90;;;;;;5018765;28;20221;-64
2022/10/10 12:38:25;;;;;;;3.05;1.75;;;24.00;99.90;;;;;;5012402;28;20246;-64
2022/10/10 12:41:14;;;;;;;1.60;1.50;;;24.10;99.90;;;;;;5017307;28;20577;-64
2022/10/10 12:43:49;;;;;;;2.17;1.30;;;24.20;99.90;;;;;;5006377;28;20205;-63
2022/10/10 12:46:34;;;;;;;2.00;1.40;;;24.20;99.90;;;;;;5009874;28;20215;-64
2022/10/10 12:49:05;;;;;;;1.40;1.30;;;24.30;99.90;;;;;;5011551;28;20287;-63
2022/10/10 12:51:35;;;;;;;1.58;1.48;;;24.30;99.90;;;;;;5015784;28;20254;-63
2022/10/10 12:54:07;;;;;;;1.52;1.40;;;24.30;99.90;;;;;;5018000;28;20219;-63
2022/10/10 12:56:44;;;;;;;2.20;1.65;;;24.30;99.90;;;;;;5023393;28;20211;-63
2022/10/10 12:59:20;;;;;;;1.23;1.13;;;24.40;99.90;;;;;;5014507;28;20221;-63
2022/10/10 13:01:52;;;;;;;2.03;1.65;;;24.40;99.90;;;;;;5016513;28;20204;-63
2022/10/10 13:04:20;;;;;;;1.45;1.30;;;24.40;99.90;;;;;;5013300;28;20197;-63